• Join FlightAware (Why Join?)
  • Login
  • US Flag 
02:13AM EDT


 

Airport Tracker/Info


-or-


 

Live Flight TrackerFlight Track Log ✈ LYM1725 ✈ 10-May-2013 ✈ KRIW - KDEN

Flight Track Log - Related Links

Times and Time Zones

All times are in EDT time to prevent confusion due to time zone crossing. See the LYM1725 flight status page for this flight to view local times or setup timezone preferences in your user account.

Time Position Orientation Groundspeed Altitude Reporting Facility
EDT Latitude Longitude Course Direction KTS MPH feet Rate Location/Type
09:06PM 42.9786 -108.4294 123° Southeast 189 217 10,700  Level Denver Center
09:07PM 42.9528 -108.3761 123° Southeast 200 230 11,900 1,020 Climbing Denver Center
09:08PM 42.9453 -108.2972 97° East 216 249 12,900 1,140 Climbing Salt Lake Center
09:09PM 42.9528 -108.2106 83° East 218 251 14,300 1,440 Climbing Salt Lake Center
09:10PM 42.9200 -108.1344 120° Southeast 234 269 15,900 1,500 Climbing Salt Lake Center
09:11PM 42.8714 -108.0653 134° Southeast 229 264 17,400 1,020 Climbing Salt Lake Center
09:12PM 42.8394 -107.9997 124° Southeast 229 264 18,000 960 Climbing Salt Lake Center
09:13PM 42.7997 -107.9236 125° Southeast 238 274 19,400 1,260 Climbing Salt Lake Center
09:14PM 42.7592 -107.8386 123° Southeast 239 275 20,600 780 Climbing Salt Lake Center
09:15PM 42.7256 -107.7644 122° Southeast 242 278 21,000 180 Climbing Salt Lake Center
09:16PM 42.6739 -107.6733 128° Southeast 269 310 21,000 -60 Level Salt Lake Center
09:17PM 42.6244 -107.5958 131° Southeast 281 323 20,900  Descending Salt Lake Center
09:18PM 42.5808 -107.5122 125° Southeast 283 326 21,100  Climbing Salt Lake Center
09:19PM 42.5303 -107.4111 124° Southeast 289 333 21,000 -120 Descending Salt Lake Center
09:20PM 42.5108 -107.3661 120° Southeast 289 333 21,000 -120 Level Denver Center
09:21PM 42.4719 -107.2772 121° Southeast 287 330 20,900  Descending Denver Center
09:22PM 42.4244 -107.1767 123° Southeast 285 328 21,000  Climbing Denver Center
09:23PM 42.3858 -107.0894 121° Southeast 283 326 21,000  Level Denver Center
09:24PM 42.3475 -107.0008 120° Southeast 284 327 21,000  Level Denver Center
09:25PM 42.2964 -106.8853 121° Southeast 280 322 21,000  Level Denver Center
09:26PM 42.2614 -106.8142 124° Southeast 284 327 21,000 -60 Level Denver Center
09:27PM 42.1981 -106.7111 130° Southeast 278 320 20,900  Descending Denver Center
09:28PM 42.1453 -106.6142 126° Southeast 286 329 21,000  Climbing Denver Center
09:29PM 42.1064 -106.5289 122° Southeast 281 323 20,900  Descending Denver Center
09:30PM 42.0697 -106.4414 119° Southeast 281 323 21,000  Climbing Denver Center
09:31PM 42.0225 -106.3431 123° Southeast 279 321 21,000  Level Denver Center
09:33PM 41.9778 -106.2603 126° Southeast 281 323 21,000  Level Denver Center
09:34PM 41.9244 -106.1622 126° Southeast 287 330 21,000  Level Denver Center
09:35PM 41.8814 -106.0789 125° Southeast 286 329 21,000  Level Denver Center
09:36PM 41.8214 -105.9919 133° Southeast 290 334 21,000  Level Denver Center
09:37PM 41.7489 -105.9506 157° South 293 337 21,000  Level Denver Center
09:38PM 41.6694 -105.8944 152° Southeast 292 336 21,000  Level Denver Center
09:39PM 41.5978 -105.8536 157° South 293 337 21,000  Level Denver Center
09:40PM 41.5092 -105.8150 162° South 298 343 21,000 -60 Level Denver Center
09:41PM 41.4364 -105.7819 161° South 294 338 20,900  Descending Denver Center
09:42PM 41.3581 -105.7236 151° Southeast 289 333 21,000  Climbing Denver Center
09:43PM 41.2975 -105.6603 142° Southeast 292 336 21,000 -480 Level Denver Center
09:44PM 41.2431 -105.5850 134° Southeast 297 342 20,100 -1,200 Descending Denver Center
09:45PM 41.1792 -105.4906 132° Southeast 307 353 18,600 -1,260 Descending Denver Center
09:46PM 41.1231 -105.4061 131° Southeast 314 361 17,600 -1,260 Descending Denver Center
09:47PM 41.0586 -105.3056 130° Southeast 317 365 16,100 -1,200 Descending Denver Center
09:48PM 40.9981 -105.2106 130° Southeast 318 366 15,200 -1,080 Descending Denver Center
09:49PM 40.9425 -105.1381 135° Southeast 323 372 13,900 -1,080 Descending Denver Center
09:50PM 40.8747 -105.0383 132° Southeast 324 373 13,000 -480 Descending Denver Center
09:51PM 40.8108 -104.9436 132° Southeast 319 367 13,000  Level Denver Center
09:52PM 40.7525 -104.8703 136° Southeast 314 361 13,000  Level Denver Center
09:53PM 40.6844 -104.7975 141° Southeast 301 346 13,000 -660 Level Denver Center
09:54PM 40.5806 -104.7492 161° South 311 358 11,600 -900 Descending Denver Center
09:55PM 40.4947 -104.7247 168° South 318 366 11,000 -300 Descending Denver Center
09:56PM 40.4111 -104.7044 170° South 309 356 11,100  Climbing Denver Center
09:57PM 40.3236 -104.6844 170° South 299 344 11,000 -60 Descending Denver Center
09:59PM 40.2411 -104.6708 173° South 298 343 11,000  Level Denver Center
10:00PM 40.1522 -104.6836 186° South 301 346 11,000  Level Denver Center
10:01PM 40.0708 -104.6969 187° South 297 342 11,000  Level Denver Center
10:02PM 39.9961 -104.7008 182° South 280 322 11,000  Level Denver Center
10:03PM 39.9489 -104.6281 130° Southeast 264 304 11,000 -60 Level Denver Center
10:03PM 39.9500 -104.5667 89° East 246 283 10,900  Descending Denver TRACON
10:04PM 39.9500 -104.4833 90° East 224 258 11,000  Climbing Denver TRACON
10:05PM 39.9333 -104.4000 105° East 224 258 11,000 -540 Level Denver TRACON
10:06PM 39.9400 -104.3719 73° East 222 255 10,300 -660 Descending Denver Center
10:07PM 39.9394 -104.2900 90° East 226 260 10,100 -180 Descending Denver Center
10:08PM 39.8950 -104.2633 155° Southeast 231 266 10,000 -420 Descending Denver Center
10:09PM 39.8725 -104.3339 247° West 200 230 9,300 -540 Descending Denver Center
10:10PM 39.8750 -104.4100 272° West 197 227 8,900 -600 Descending Denver Center
10:10PM 39.8833 -104.4500 285° West 201 231 8,400 -1,080 Descending Denver TRACON
10:11PM 39.8833 -104.5167 270° West 149 171 7,200 -1,020 Descending Denver TRACON
10:12PM 39.8833 -104.5667 270° West 139 160 6,300 -900 Descending Denver TRACON
10:13PM 39.8833 -104.6167 270° West 136 157 5,500 -660 Descending Denver TRACON
10:14PM 39.8769 -104.6386 249° West 134 154 5,300 -420 Descending Denver Center